createdAt,value
2022-09-07T00:02:17.440Z,99.16
2022-09-07T00:04:47.548Z,99.19
2022-09-07T00:07:17.706Z,99.93
2022-09-07T00:09:47.653Z,99.99
2022-09-07T00:12:17.540Z,99.99
2022-09-07T00:14:47.627Z,99.99
2022-09-07T00:17:17.722Z,99.99
2022-09-07T00:19:48.060Z,99.99
2022-09-07T00:22:18.052Z,99.99
2022-09-07T00:24:48.393Z,99.99
2022-09-07T00:27:18.360Z,99.99
2022-09-07T00:29:48.627Z,99.99
2022-09-07T00:32:18.511Z,99.99
2022-09-07T00:34:48.601Z,99.99
2022-09-07T00:37:19.025Z,99.99
2022-09-07T00:39:50.974Z,99.99
2022-09-07T00:42:23.768Z,99.99
2022-09-07T00:45:08.404Z,99.99
2022-09-07T00:48:06.348Z,99.99
2022-09-07T00:50:41.052Z,99.99
2022-09-07T00:53:23.118Z,99.99
2022-09-07T00:55:55.322Z,99.99
2022-09-07T00:58:27.024Z,99.99
2022-09-07T01:00:57.612Z,99.99
2022-09-07T01:03:33.913Z,99.99
2022-09-07T01:06:22.523Z,99.99
2022-09-07T01:08:53.639Z,99.99
2022-09-07T01:11:24.903Z,99.75
2022-09-07T01:13:56.403Z,99.92
2022-09-07T01:16:57.258Z,99.99
2022-09-07T01:20:03.833Z,99.99
2022-09-07T01:22:39.998Z,99.99
2022-09-07T01:25:12.776Z,99.99
2022-09-07T01:28:19.632Z,99.99
2022-09-07T01:31:22.115Z,99.99
2022-09-07T01:34:11.660Z,99.99
2022-09-07T01:37:19.932Z,99.99
2022-09-07T01:39:58.455Z,99.99
2022-09-07T01:42:38.834Z,99.99
2022-09-07T01:45:13.955Z,99.99
2022-09-07T01:47:57.425Z,99.99
2022-09-07T01:50:42.175Z,99.99
2022-09-07T01:53:36.012Z,99.99
2022-09-07T01:56:18.094Z,99.99
2022-09-07T01:59:02.041Z,99.99
2022-09-07T02:01:47.257Z,99.99
2022-09-07T02:04:29.851Z,99.99
2022-09-07T02:07:07.818Z,99.99
2022-09-07T02:09:57.857Z,99.99
2022-09-07T02:12:49.685Z,99.99
2022-09-07T02:15:26.155Z,99.99
2022-09-07T02:18:03.035Z,99.99
2022-09-07T02:20:39.402Z,99.99
2022-09-07T02:23:15.952Z,99.99
2022-09-07T02:25:54.904Z,99.99
2022-09-07T02:28:30.440Z,99.99
2022-09-07T02:31:01.270Z,99.99
2022-09-07T02:33:32.722Z,99.99
2022-09-07T02:36:05.605Z,99.99
2022-09-07T02:38:36.773Z,99.99
2022-09-07T02:41:08.057Z,99.99
2022-09-07T02:43:39.622Z,99.99
2022-09-07T02:46:28.392Z,99.99
2022-09-07T02:49:22.286Z,99.99
2022-09-07T02:52:29.448Z,99.99
2022-09-07T02:55:11.774Z,99.99
2022-09-07T02:58:00.567Z,99.99
2022-09-07T03:00:36.431Z,99.99
2022-09-07T03:03:17.385Z,99.99
2022-09-07T03:05:50.594Z,99.99
2022-09-07T03:08:27.695Z,99.99
2022-09-07T03:10:59.470Z,99.99
2022-09-07T03:13:31.571Z,99.99
2022-09-07T03:16:02.450Z,99.99
2022-09-07T03:18:32.826Z,99.99
2022-09-07T03:21:03.127Z,99.99
2022-09-07T03:23:33.101Z,99.99
2022-09-07T03:26:03.322Z,99.99
2022-09-07T03:28:33.283Z,99.99
2022-09-07T03:31:04.410Z,99.99
2022-09-07T03:33:35.244Z,99.99
2022-09-07T03:36:05.978Z,99.99
2022-09-07T03:38:36.438Z,99.99
2022-09-07T03:41:08.814Z,99.99
2022-09-07T03:43:39.591Z,99.99
2022-09-07T03:46:11.769Z,99.99
2022-09-07T03:48:42.095Z,99.99
2022-09-07T03:51:13.262Z,99.99
2022-09-07T03:53:45.867Z,99.99
2022-09-07T03:56:22.547Z,99.99
2022-09-07T03:58:53.019Z,99.99
2022-09-07T04:01:25.971Z,99.99
2022-09-07T04:04:02.457Z,99.99
2022-09-07T04:06:33.765Z,99.99
2022-09-07T04:09:08.903Z,99.99
2022-09-07T04:11:39.230Z,99.99
2022-09-07T04:14:10.569Z,99.99
2022-09-07T04:16:41.280Z,99.99
2022-09-07T04:19:11.653Z,99.99
2022-09-07T04:21:42.050Z,99.99
2022-09-07T04:24:12.396Z,99.99
2022-09-07T04:26:44.541Z,99.99
2022-09-07T04:29:15.326Z,99.99
2022-09-07T04:31:45.156Z,99.99
2022-09-07T04:34:15.505Z,99.99
2022-09-07T04:36:45.652Z,99.99
2022-09-07T04:39:15.710Z,99.99
2022-09-07T04:41:45.602Z,99.99
2022-09-07T04:44:17.121Z,99.99
2022-09-07T04:46:47.455Z,99.99
2022-09-07T04:49:17.786Z,99.99
2022-09-07T04:51:48.425Z,99.99
2022-09-07T04:54:18.366Z,99.99
2022-09-07T04:56:48.241Z,99.99
2022-09-07T04:59:18.142Z,99.99
2022-09-07T05:01:48.248Z,99.99
2022-09-07T05:04:18.220Z,99.99
2022-09-07T05:06:48.399Z,99.99
2022-09-07T05:09:18.452Z,99.99
2022-09-07T05:11:48.339Z,99.99
2022-09-07T05:14:18.461Z,99.99
2022-09-07T05:16:48.383Z,99.99
2022-09-07T05:19:18.807Z,99.99
2022-09-07T05:21:48.670Z,99.99
2022-09-07T05:24:18.565Z,99.99
2022-09-07T05:26:48.276Z,99.99
2022-09-07T05:32:08.455Z,99.99
2022-09-07T05:34:38.737Z,99.99
2022-09-07T05:37:08.825Z,99.99
2022-09-07T05:39:38.973Z,99.99
2022-09-07T05:42:09.276Z,99.99
2022-09-07T05:47:13.154Z,99.99
2022-09-07T05:49:43.213Z,99.99
2022-09-07T05:52:13.287Z,99.99
2022-09-07T05:54:43.144Z,99.99
2022-09-07T05:57:14.921Z,99.99
2022-09-07T05:59:45.750Z,99.99
2022-09-07T06:02:17.024Z,99.99
2022-09-07T06:04:48.681Z,99.99
2022-09-07T06:07:23.243Z,99.99
2022-09-07T06:12:49.205Z,99.99
2022-09-07T06:15:19.949Z,99.99
2022-09-07T06:17:50.379Z,99.99
2022-09-07T06:20:20.680Z,99.99
2022-09-07T06:22:50.615Z,99.99
2022-09-07T06:25:20.677Z,99.99
2022-09-07T06:27:51.464Z,99.99
2022-09-07T06:30:23.157Z,99.99
2022-09-07T06:32:53.458Z,99.99
2022-09-07T06:35:23.362Z,99.99
2022-09-07T06:37:53.206Z,99.99
2022-09-07T06:40:24.054Z,99.99
2022-09-07T06:42:54.544Z,99.99
2022-09-07T06:45:25.266Z,99.99
2022-09-07T06:47:55.980Z,99.99
2022-09-07T06:50:28.988Z,99.99
2022-09-07T06:55:49.970Z,99.99
2022-09-07T06:58:20.420Z,99.99
2022-09-07T07:00:50.416Z,99.99
2022-09-07T07:03:20.985Z,99.99
2022-09-07T07:05:55.306Z,99.99
2022-09-07T07:08:27.545Z,99.99
2022-09-07T07:10:57.448Z,99.99
2022-09-07T07:13:27.661Z,99.99
2022-09-07T07:16:13.238Z,99.99
2022-09-07T07:18:45.048Z,99.99
2022-09-07T07:21:16.647Z,99.99
2022-09-07T07:23:51.699Z,99.99
2022-09-07T07:26:27.915Z,99.99
2022-09-07T07:31:30.878Z,99.99
2022-09-07T07:34:01.513Z,99.99
2022-09-07T07:36:32.115Z,99.99
2022-09-07T07:39:02.876Z,99.99
2022-09-07T07:44:24.623Z,99.99
2022-09-07T07:46:55.099Z,99.99
2022-09-07T07:49:25.466Z,99.99
2022-09-07T07:54:49.293Z,99.99
2022-09-07T07:57:20.495Z,99.99
2022-09-07T07:59:51.081Z,99.99
2022-09-07T08:02:20.991Z,99.99
2022-09-07T08:04:51.246Z,99.99
2022-09-07T08:07:22.027Z,99.99
2022-09-07T08:09:52.210Z,99.99
2022-09-07T08:12:24.606Z,99.99
2022-09-07T08:14:56.764Z,99.99
2022-09-07T08:17:26.975Z,99.99
2022-09-07T08:19:57.259Z,99.99
2022-09-07T08:22:28.375Z,99.99
2022-09-07T08:25:00.106Z,99.99
2022-09-07T08:27:29.951Z,99.99
2022-09-07T08:30:00.178Z,99.99
2022-09-07T08:32:32.987Z,99.99
2022-09-07T08:35:04.024Z,99.99
2022-09-07T08:37:34.026Z,99.99
2022-09-07T08:40:04.491Z,99.99
2022-09-07T08:42:37.470Z,99.99
2022-09-07T08:45:16.126Z,99.99
2022-09-07T08:47:54.229Z,99.99
2022-09-07T08:50:50.255Z,99.99
2022-09-07T08:53:22.187Z,99.99
2022-09-07T08:56:05.253Z,99.99
2022-09-07T08:58:54.857Z,99.99
2022-09-07T09:01:34.949Z,99.99
2022-09-07T09:04:28.965Z,99.99
2022-09-07T09:07:23.443Z,99.99
2022-09-07T09:10:20.805Z,99.99
2022-09-07T09:13:04.744Z,99.99
2022-09-07T09:15:59.990Z,99.99
2022-09-07T09:18:41.091Z,99.99
2022-09-07T09:21:20.012Z,99.99
2022-09-07T09:23:54.402Z,99.99
2022-09-07T09:26:32.364Z,99.99
2022-09-07T09:29:22.684Z,99.99
2022-09-07T09:31:54.713Z,99.99
2022-09-07T09:34:29.356Z,99.99
2022-09-07T09:37:01.834Z,99.99
2022-09-07T09:39:41.128Z,99.99
2022-09-07T09:42:17.885Z,99.99
2022-09-07T09:44:48.970Z,99.99
2022-09-07T09:47:33.466Z,99.99
2022-09-07T09:50:10.053Z,99.99
2022-09-07T09:52:49.254Z,99.99
2022-09-07T09:55:36.102Z,99.99
2022-09-07T10:06:24.773Z,99.99
2022-09-07T10:09:03.430Z,99.99
2022-09-07T10:12:08.279Z,99.99
2022-09-07T10:14:45.534Z,99.99
2022-09-07T10:17:32.161Z,99.99
2022-09-07T10:20:05.838Z,99.99
2022-09-07T10:22:41.526Z,99.99
2022-09-07T10:25:34.598Z,99.99
2022-09-07T10:28:16.546Z,99.99
2022-09-07T10:31:15.040Z,99.99
2022-09-07T10:34:27.538Z,99.99
2022-09-07T10:37:13.173Z,99.99
2022-09-07T10:39:45.268Z,99.99
2022-09-07T10:42:21.185Z,99.99
2022-09-07T10:45:08.584Z,99.99
2022-09-07T10:48:09.463Z,99.99
2022-09-07T10:51:13.396Z,99.99
2022-09-07T10:57:04.244Z,99.99
2022-09-07T11:06:05.652Z,99.99
2022-09-07T11:12:03.361Z,99.99
2022-09-07T11:15:29.221Z,99.99
2022-09-07T11:18:10.075Z,99.99
2022-09-07T11:21:00.021Z,99.99
2022-09-07T11:23:57.265Z,99.99
2022-09-07T11:27:14.759Z,99.99
2022-09-07T11:30:25.047Z,99.99
2022-09-07T11:32:58.941Z,99.99
2022-09-07T11:35:57.141Z,99.99
2022-09-07T11:38:44.169Z,99.99
2022-09-07T11:41:24.199Z,99.99
2022-09-07T11:44:07.551Z,99.99
2022-09-07T11:46:50.066Z,99.99
2022-09-07T11:49:30.579Z,99.99
2022-09-07T11:52:17.779Z,99.99
2022-09-07T11:54:57.188Z,99.99
2022-09-07T11:57:56.271Z,99.99
2022-09-07T12:00:40.199Z,99.99
2022-09-07T12:03:22.745Z,99.99
2022-09-07T12:06:18.076Z,99.99
2022-09-07T12:09:06.153Z,99.99
2022-09-07T12:12:12.344Z,99.99
2022-09-07T12:14:56.735Z,99.99
2022-09-07T12:17:42.544Z,99.99
2022-09-07T12:20:20.567Z,99.99
2022-09-07T12:23:04.830Z,99.99
2022-09-07T12:25:36.921Z,99.99
2022-09-07T12:28:07.736Z,99.99
2022-09-07T12:30:38.040Z,99.99
2022-09-07T12:33:26.220Z,99.99
2022-09-07T12:35:59.997Z,99.99
2022-09-07T12:38:33.393Z,99.99
2022-09-07T12:41:22.335Z,99.99
2022-09-07T12:44:06.600Z,99.99
2022-09-07T12:46:37.071Z,99.99
2022-09-07T12:49:10.724Z,99.99
2022-09-07T12:54:39.064Z,99.99
2022-09-07T12:57:32.887Z,99.99
2022-09-07T13:00:17.809Z,99.99
2022-09-07T13:09:37.780Z,99.92
2022-09-07T13:15:49.655Z,97.88
2022-09-07T13:18:28.980Z,97.45
2022-09-07T13:21:11.020Z,96.68
2022-09-07T13:23:50.632Z,97.91
2022-09-07T13:26:58.708Z,98.62
2022-09-07T13:29:48.171Z,99.26
2022-09-07T13:35:27.922Z,96.30
2022-09-07T13:38:05.503Z,93.91
2022-09-07T13:40:41.063Z,94.19
2022-09-07T13:43:18.369Z,93.76
2022-09-07T13:45:58.107Z,94.35
2022-09-07T13:48:48.054Z,90.76
2022-09-07T13:51:51.584Z,91.95
2022-09-07T13:55:06.760Z,94.58
2022-09-07T13:58:08.554Z,98.10
2022-09-07T14:00:50.383Z,98.21
2022-09-07T14:03:20.737Z,98.69
2022-09-07T14:05:50.541Z,98.98
2022-09-07T14:08:33.388Z,99.99
2022-09-07T14:11:05.345Z,99.83
2022-09-07T14:13:35.782Z,99.99
2022-09-07T14:16:05.786Z,99.99
2022-09-07T14:18:35.784Z,99.99
2022-09-07T14:21:07.426Z,99.99
2022-09-07T14:23:41.017Z,99.99
2022-09-07T14:26:20.648Z,99.99
2022-09-07T14:28:56.516Z,99.99
2022-09-07T14:31:27.260Z,99.99
2022-09-07T14:33:59.423Z,99.99
2022-09-07T14:36:46.573Z,99.99
2022-09-07T14:39:19.692Z,98.97
2022-09-07T14:41:50.982Z,96.25
2022-09-07T14:44:31.828Z,95.56
2022-09-07T14:47:24.565Z,94.07
2022-09-07T14:50:06.828Z,91.90
2022-09-07T14:53:33.637Z,88.91
2022-09-07T14:55:40.374Z,86.20
2022-09-07T14:58:17.021Z,86.46
2022-09-07T15:01:37.247Z,86.86
2022-09-07T15:03:43.093Z,89.51
2022-09-07T15:09:07.430Z,91.28
2022-09-07T15:11:38.561Z,89.60
2022-09-07T15:14:13.780Z,90.15
2022-09-07T15:16:46.536Z,90.40
2022-09-07T15:19:17.311Z,88.71
2022-09-07T15:21:47.621Z,86.80
2022-09-07T15:24:18.755Z,86.67
2022-09-07T15:27:05.938Z,86.66
2022-09-07T15:29:36.775Z,89.01
2022-09-07T15:32:11.590Z,87.86
2022-09-07T15:34:43.918Z,87.28
2022-09-07T15:40:18.482Z,87.91
2022-09-07T15:43:13.980Z,87.17
2022-09-07T15:45:39.809Z,88.07
2022-09-07T15:48:15.056Z,86.73
2022-09-07T15:50:45.821Z,88.21
2022-09-07T15:56:07.632Z,84.67
2022-09-07T15:58:38.571Z,87.19
2022-09-07T16:04:01.222Z,84.65
2022-09-07T16:06:32.476Z,82.21
2022-09-07T16:09:06.095Z,84.70
2022-09-07T16:11:37.246Z,82.11
2022-09-07T16:14:07.611Z,83.43
2022-09-07T16:19:28.369Z,82.21
2022-09-07T16:21:58.981Z,82.17
2022-09-07T16:24:29.953Z,81.59
2022-09-07T16:27:00.659Z,84.63
2022-09-07T16:29:30.716Z,84.77
2022-09-07T16:34:52.116Z,83.69
2022-09-07T16:37:23.082Z,82.20
2022-09-07T16:39:54.506Z,80.77
2022-09-07T16:42:25.047Z,79.94
2022-09-07T16:46:02.422Z,81.71
2022-09-07T16:47:45.953Z,79.43
2022-09-07T16:50:17.416Z,79.26
2022-09-07T16:52:48.087Z,78.40
2022-09-07T16:55:18.698Z,80.35
2022-09-07T17:00:40.129Z,81.71
2022-09-07T17:03:10.724Z,81.74
2022-09-07T17:05:42.675Z,81.71
2022-09-07T17:08:12.741Z,82.64
2022-09-07T17:10:43.554Z,83.41
2022-09-07T17:13:14.302Z,83.94
2022-09-07T17:15:44.916Z,85.75
2022-09-07T17:18:16.688Z,85.00
2022-09-07T17:21:00.916Z,85.38
2022-09-07T17:23:37.167Z,85.56
2022-09-07T17:26:21.183Z,85.79
2022-09-07T17:28:53.207Z,84.78
2022-09-07T17:34:20.905Z,85.54
2022-09-07T17:36:51.694Z,85.26
2022-09-07T17:39:21.706Z,85.10
2022-09-07T17:41:55.713Z,84.29
2022-09-07T17:44:28.990Z,85.03
2022-09-07T17:47:01.782Z,85.39
2022-09-07T17:49:32.605Z,85.81
2022-09-07T17:52:03.725Z,85.34
2022-09-07T17:54:35.665Z,85.62
2022-09-07T17:57:07.389Z,86.52
2022-09-07T18:02:28.481Z,87.74
2022-09-07T18:04:58.835Z,87.34
2022-09-07T18:07:28.749Z,87.32
2022-09-07T18:09:58.902Z,87.79
2022-09-07T18:12:28.707Z,86.42
2022-09-07T18:14:58.509Z,85.77
2022-09-07T18:17:28.439Z,85.46
2022-09-07T18:19:58.777Z,86.09
2022-09-07T18:22:28.585Z,86.23
2022-09-07T18:24:58.409Z,86.20
2022-09-07T18:27:31.038Z,86.70
2022-09-07T18:30:01.118Z,86.22
2022-09-07T18:32:31.748Z,85.99
2022-09-07T18:35:02.355Z,84.74
2022-09-07T18:37:33.438Z,84.00
2022-09-07T18:40:04.185Z,83.26
2022-09-07T18:42:34.881Z,82.11
2022-09-07T18:47:56.369Z,84.21
2022-09-07T18:50:26.543Z,84.51
2022-09-07T18:53:04.098Z,85.25
2022-09-07T18:55:44.380Z,86.20
2022-09-07T18:58:15.277Z,86.50
2022-09-07T19:00:48.779Z,87.33
2022-09-07T19:03:19.231Z,85.76
2022-09-07T19:05:50.323Z,84.69
2022-09-07T19:08:20.897Z,84.40
2022-09-07T19:10:51.061Z,84.65
2022-09-07T19:13:21.469Z,83.01
2022-09-07T19:15:51.285Z,83.39
2022-09-07T19:18:21.139Z,84.44
2022-09-07T19:20:50.963Z,84.38
2022-09-07T19:23:21.956Z,85.34
2022-09-07T19:25:52.619Z,85.77
2022-09-07T19:28:22.891Z,84.62
2022-09-07T19:30:53.280Z,84.52
2022-09-07T19:33:24.264Z,85.11
2022-09-07T19:35:54.993Z,85.40
2022-09-07T19:38:25.642Z,85.92
2022-09-07T19:40:59.810Z,84.49
2022-09-07T19:43:34.737Z,83.41
2022-09-07T19:46:05.655Z,83.19
2022-09-07T19:48:35.979Z,82.84
2022-09-07T19:51:08.895Z,83.09
2022-09-07T19:53:41.960Z,84.58
2022-09-07T19:56:23.967Z,86.17
2022-09-07T19:58:54.467Z,85.95
2022-09-07T20:01:29.573Z,86.10
2022-09-07T20:04:02.233Z,87.13
2022-09-07T20:06:36.616Z,86.79
2022-09-07T20:09:08.125Z,87.04
2022-09-07T20:11:40.835Z,86.72
2022-09-07T20:14:12.932Z,87.14
2022-09-07T20:16:43.622Z,86.67
2022-09-07T20:19:17.621Z,86.50
2022-09-07T20:21:49.258Z,87.38
2022-09-07T20:24:23.470Z,88.70
2022-09-07T20:26:54.191Z,89.18
2022-09-07T20:29:27.713Z,90.63
2022-09-07T20:32:02.740Z,91.68
2022-09-07T20:34:33.531Z,91.03
2022-09-07T20:37:03.770Z,90.21
2022-09-07T20:39:38.879Z,91.02
2022-09-07T20:42:09.739Z,92.01
2022-09-07T20:44:39.594Z,92.80
2022-09-07T20:47:09.457Z,93.73
2022-09-07T20:49:40.879Z,92.80
2022-09-07T20:52:11.236Z,94.68
2022-09-07T20:54:41.115Z,94.07
2022-09-07T20:57:11.106Z,93.48
2022-09-07T20:59:41.490Z,92.79
2022-09-07T21:02:11.995Z,94.71
2022-09-07T21:04:42.065Z,96.18
2022-09-07T21:07:11.944Z,96.52
2022-09-07T21:09:42.369Z,97.87
2022-09-07T21:12:12.634Z,98.50
2022-09-07T21:14:42.440Z,98.71
2022-09-07T21:17:12.301Z,99.25
2022-09-07T21:19:42.096Z,99.99
2022-09-07T21:22:12.220Z,99.99
2022-09-07T21:24:42.590Z,99.99
2022-09-07T21:27:12.527Z,99.99
2022-09-07T21:29:42.878Z,99.99
2022-09-07T21:32:12.929Z,99.99
2022-09-07T21:34:43.085Z,99.99
2022-09-07T21:37:13.197Z,99.99
2022-09-07T21:39:43.588Z,99.99
2022-09-07T21:42:13.552Z,99.99
2022-09-07T21:44:43.491Z,99.99
2022-09-07T21:47:13.387Z,99.99
2022-09-07T21:49:45.705Z,99.99
2022-09-07T21:52:16.235Z,99.99
2022-09-07T21:54:46.121Z,99.99
2022-09-07T21:57:15.980Z,99.99
2022-09-07T21:59:46.297Z,99.99
2022-09-07T22:02:16.326Z,99.99
2022-09-07T22:04:46.196Z,99.99
2022-09-07T22:07:16.105Z,99.99
2022-09-07T22:09:45.891Z,99.99
2022-09-07T22:12:15.778Z,99.99
2022-09-07T22:14:46.990Z,99.99
2022-09-07T22:17:17.221Z,99.99
2022-09-07T22:19:47.250Z,99.99
2022-09-07T22:22:17.518Z,99.99
2022-09-07T22:24:47.278Z,99.99
2022-09-07T22:27:17.817Z,99.99
2022-09-07T22:29:47.834Z,99.99
2022-09-07T22:32:18.140Z,99.99
2022-09-07T22:34:48.028Z,99.99
2022-09-07T22:37:18.383Z,99.99
2022-09-07T22:39:48.765Z,99.99
2022-09-07T22:42:18.750Z,99.99
2022-09-07T22:44:48.624Z,99.99
2022-09-07T22:47:18.515Z,99.99
2022-09-07T22:49:48.412Z,99.99
2022-09-07T22:52:18.530Z,99.99
2022-09-07T22:54:48.721Z,99.99
2022-09-07T22:57:18.702Z,99.99
2022-09-07T22:59:48.783Z,99.99
2022-09-07T23:02:18.715Z,99.99
2022-09-07T23:04:48.582Z,99.99
2022-09-07T23:07:18.610Z,99.99
2022-09-07T23:09:49.258Z,99.99
2022-09-07T23:12:20.055Z,99.99
2022-09-07T23:14:50.915Z,99.99
2022-09-07T23:17:21.906Z,99.99
2022-09-07T23:19:51.993Z,99.99
2022-09-07T23:22:22.315Z,99.99
2022-09-07T23:24:52.557Z,99.99
2022-09-07T23:27:22.548Z,99.99
2022-09-07T23:29:52.919Z,99.99
2022-09-07T23:32:22.747Z,99.99
2022-09-07T23:34:53.088Z,99.99
2022-09-07T23:37:22.959Z,99.99
2022-09-07T23:39:53.471Z,99.99
2022-09-07T23:42:38.325Z,99.99
2022-09-07T23:45:09.980Z,99.99
2022-09-07T23:47:40.757Z,99.99
2022-09-07T23:50:12.780Z,99.99
2022-09-07T23:52:42.838Z,99.99
2022-09-07T23:55:13.093Z,99.99
2022-09-07T23:57:43.004Z,99.99
